createdAt,value
2023-05-25T00:01:14.025Z,102560.97
2023-05-25T00:03:40.870Z,102609.16
2023-05-25T00:06:08.051Z,102612.09
2023-05-25T00:08:35.035Z,102602.72
2023-05-25T00:11:01.837Z,102615.78
2023-05-25T00:13:31.151Z,102603.69
2023-05-25T00:15:58.598Z,102613.63
2023-05-25T00:18:25.423Z,102613.06
2023-05-25T00:20:55.306Z,102607.38
2023-05-25T00:23:25.065Z,102575.66
2023-05-25T00:25:52.053Z,102452.75
2023-05-25T00:28:19.051Z,102578.19
2023-05-25T00:30:45.988Z,102572.94
2023-05-25T00:33:13.182Z,102622.13
2023-05-25T00:35:39.808Z,102619.38
2023-05-25T00:38:09.216Z,102621.31
2023-05-25T00:40:39.377Z,102619.59
2023-05-25T00:43:08.550Z,102579.56
2023-05-25T00:45:35.806Z,102612.91
2023-05-25T00:48:04.992Z,102617.41
2023-05-25T00:50:42.527Z,102613.91
2023-05-25T00:53:10.999Z,102606.44
2023-05-25T00:55:46.185Z,102611.59
2023-05-25T00:58:14.008Z,102613.47
2023-05-25T01:00:43.118Z,102618.03
2023-05-25T01:03:17.870Z,102577.00
2023-05-25T01:05:48.837Z,102585.19
2023-05-25T01:08:18.379Z,102567.72
2023-05-25T01:10:52.871Z,102614.25
2023-05-25T01:13:21.443Z,102571.41
2023-05-25T01:15:48.841Z,102625.38
2023-05-25T01:18:17.018Z,102625.69
2023-05-25T01:21:18.225Z,102623.25
2023-05-25T01:23:53.369Z,102600.94
2023-05-25T01:26:23.837Z,102644.50
2023-05-25T01:28:53.262Z,102609.66
2023-05-25T01:31:23.941Z,102600.97
2023-05-25T01:33:52.560Z,102651.28
2023-05-25T01:36:21.986Z,102621.53
2023-05-25T01:38:49.616Z,102606.19
2023-05-25T01:41:16.342Z,102648.38
2023-05-25T01:43:43.225Z,102648.47
2023-05-25T01:46:15.217Z,102649.34
2023-05-25T01:49:21.705Z,102643.22
2023-05-25T01:52:01.246Z,102648.78
2023-05-25T01:54:35.916Z,102653.56
2023-05-25T01:57:10.912Z,102606.25
2023-05-25T01:59:43.967Z,102653.78
2023-05-25T02:02:13.796Z,102644.22
2023-05-25T02:04:41.576Z,102640.44
2023-05-25T02:07:08.490Z,102643.47
2023-05-25T02:09:35.635Z,102645.41
2023-05-25T02:12:04.987Z,102641.69
2023-05-25T02:14:31.607Z,102617.72
2023-05-25T02:17:01.963Z,102650.22
2023-05-25T02:19:29.494Z,102643.38
2023-05-25T02:21:56.331Z,102656.81
2023-05-25T02:24:25.102Z,102640.69
2023-05-25T02:26:51.937Z,102656.16
2023-05-25T02:29:18.975Z,102655.38
2023-05-25T02:31:46.094Z,102650.03
2023-05-25T02:34:14.812Z,102609.09
2023-05-25T02:36:43.540Z,102591.56
2023-05-25T02:39:11.831Z,102645.44
2023-05-25T02:41:39.440Z,102637.47
2023-05-25T02:44:06.631Z,102615.97
2023-05-25T02:46:34.127Z,102651.09
2023-05-25T02:49:01.108Z,102614.91
2023-05-25T02:51:29.106Z,102608.72
2023-05-25T02:53:56.496Z,102648.94
2023-05-25T02:56:23.306Z,102651.09
2023-05-25T02:58:50.424Z,102655.56
2023-05-25T03:01:20.044Z,102662.19
2023-05-25T03:03:47.478Z,102618.13
2023-05-25T03:06:17.078Z,102656.16
2023-05-25T03:08:46.293Z,102629.41
2023-05-25T03:11:15.561Z,102668.22
2023-05-25T03:13:42.533Z,102615.50
2023-05-25T03:16:09.882Z,102599.16
2023-05-25T03:18:36.850Z,102593.22
2023-05-25T03:21:04.092Z,102670.53
2023-05-25T03:23:30.864Z,102678.81
2023-05-25T03:25:58.159Z,102685.13
2023-05-25T03:28:28.173Z,102687.94
2023-05-25T03:30:54.907Z,102689.78
2023-05-25T03:33:21.616Z,102654.75
2023-05-25T03:35:50.752Z,102678.88
2023-05-25T03:38:17.628Z,102675.97
2023-05-25T03:40:44.419Z,102691.13
2023-05-25T03:43:11.635Z,102692.97
2023-05-25T03:45:41.053Z,102694.44
2023-05-25T03:48:08.106Z,102666.19
2023-05-25T03:50:35.011Z,102679.06
2023-05-25T03:53:01.793Z,102686.75
2023-05-25T03:55:29.182Z,102686.75
2023-05-25T03:57:55.979Z,102684.03
2023-05-25T04:00:22.870Z,102650.34
2023-05-25T04:02:49.836Z,102695.81
2023-05-25T04:05:16.561Z,102585.28
2023-05-25T04:07:43.665Z,102690.59
2023-05-25T04:10:11.292Z,102656.03
2023-05-25T04:12:38.613Z,102692.34
2023-05-25T04:15:09.152Z,102659.63
2023-05-25T04:17:39.121Z,102708.38
2023-05-25T04:20:09.091Z,102708.38
2023-05-25T04:22:39.066Z,102674.13
2023-05-25T04:25:08.278Z,102708.00
2023-05-25T04:27:34.989Z,102685.63
2023-05-25T04:30:01.885Z,102720.53
2023-05-25T04:32:30.085Z,102715.66
2023-05-25T04:34:57.318Z,102724.53
2023-05-25T04:37:27.288Z,102719.38
2023-05-25T04:39:54.354Z,102715.53
2023-05-25T04:42:24.030Z,102691.28
2023-05-25T04:44:55.952Z,102715.22
2023-05-25T04:47:25.058Z,102721.31
2023-05-25T04:49:52.047Z,102680.78
2023-05-25T04:52:18.886Z,102728.88
2023-05-25T04:54:46.951Z,102722.31
2023-05-25T04:57:13.665Z,102733.41
2023-05-25T04:59:41.131Z,102720.63
2023-05-25T05:02:08.723Z,102719.25
2023-05-25T05:04:37.423Z,102719.50
2023-05-25T05:07:04.348Z,102716.84
2023-05-25T05:09:30.993Z,102725.66
2023-05-25T05:11:57.720Z,102723.84
2023-05-25T05:14:24.532Z,102718.59
2023-05-25T05:16:51.558Z,102714.81
2023-05-25T05:19:18.413Z,102720.13
2023-05-25T05:21:47.595Z,102722.00
2023-05-25T05:24:17.281Z,102684.72
2023-05-25T05:26:55.503Z,102696.13
2023-05-25T05:29:24.200Z,102729.97
2023-05-25T05:31:51.149Z,102715.69
2023-05-25T05:34:17.938Z,102694.34
2023-05-25T05:36:56.430Z,102701.22
2023-05-25T05:39:24.507Z,102729.88
2023-05-25T05:41:51.356Z,102723.06
2023-05-25T05:44:18.715Z,102739.28
2023-05-25T05:46:46.496Z,102740.63
2023-05-25T05:49:13.517Z,102737.41
2023-05-25T05:51:40.231Z,102722.69
2023-05-25T05:54:07.206Z,102745.59
2023-05-25T05:56:33.910Z,102748.56
2023-05-25T05:59:00.833Z,102742.44
2023-05-25T06:01:27.698Z,102757.50
2023-05-25T06:03:56.115Z,102732.13
2023-05-25T06:06:25.734Z,102737.69
2023-05-25T06:08:53.669Z,102765.72
2023-05-25T06:11:20.657Z,102766.34
2023-05-25T06:13:47.673Z,102747.75
2023-05-25T06:16:14.734Z,102770.50
2023-05-25T06:51:06.252Z,102801.06
2023-05-25T06:53:36.093Z,102766.06
2023-05-25T06:56:02.835Z,102771.50
2023-05-25T06:58:32.643Z,102766.81
2023-05-25T07:01:01.678Z,102766.47
2023-05-25T07:03:28.732Z,102796.69
2023-05-25T07:05:57.643Z,102799.56
2023-05-25T07:08:24.366Z,102805.94
2023-05-25T07:10:51.680Z,102779.00
2023-05-25T07:13:18.454Z,102797.69
2023-05-25T07:15:45.406Z,102805.56
2023-05-25T07:18:15.436Z,102772.47
2023-05-25T07:20:42.731Z,102806.84
2023-05-25T07:23:10.484Z,102803.66
2023-05-25T07:25:41.716Z,102800.75
2023-05-25T07:28:08.904Z,102806.25
2023-05-25T07:30:36.196Z,102806.53
2023-05-25T07:33:03.384Z,102808.00
2023-05-25T07:35:30.278Z,102807.72
2023-05-25T07:38:00.808Z,102783.97
2023-05-25T07:40:28.142Z,102810.69
2023-05-25T07:42:55.383Z,102810.81
2023-05-25T07:45:22.599Z,102819.47
2023-05-25T07:47:49.587Z,102791.28
2023-05-25T07:50:19.058Z,102812.88
2023-05-25T07:52:46.983Z,102807.03
2023-05-25T07:55:14.049Z,102812.38
2023-05-25T07:57:40.868Z,102813.66
2023-05-25T08:00:12.129Z,102824.97
2023-05-25T08:02:42.102Z,102794.91
2023-05-25T08:05:10.200Z,102801.84
2023-05-25T08:07:40.753Z,102821.44
2023-05-25T08:10:10.353Z,102816.81
2023-05-25T08:12:46.851Z,102774.66
2023-05-25T08:15:17.663Z,102831.38
2023-05-25T08:17:45.153Z,102828.72
2023-05-25T08:20:20.280Z,102833.84
2023-05-25T08:22:50.057Z,102808.19
2023-05-25T08:25:16.973Z,102833.41
2023-05-25T08:27:49.081Z,102804.19
2023-05-25T08:30:15.837Z,102827.03
2023-05-25T08:32:44.484Z,102840.13
2023-05-25T08:35:11.223Z,102840.41
2023-05-25T08:37:38.344Z,102857.16
2023-05-25T08:40:08.011Z,102850.53
2023-05-25T08:42:35.041Z,102853.63
2023-05-25T08:45:04.603Z,102851.94
2023-05-25T08:47:36.791Z,102852.47
2023-05-25T08:50:03.991Z,102840.47
2023-05-25T08:52:33.849Z,102849.91
2023-05-25T08:55:06.432Z,102819.66
2023-05-25T08:57:55.918Z,102869.88
2023-05-25T09:00:34.372Z,102839.63
2023-05-25T09:03:18.396Z,102870.75
2023-05-25T09:05:46.476Z,102873.34
2023-05-25T09:08:13.972Z,102872.47
2023-05-25T09:10:41.501Z,102876.09
2023-05-25T09:13:21.165Z,102845.63
2023-05-25T09:15:49.700Z,102827.66
2023-05-25T09:18:17.622Z,102859.69
2023-05-25T09:20:46.926Z,102847.25
2023-05-25T09:23:15.286Z,102852.03
2023-05-25T09:25:42.687Z,102884.22
2023-05-25T09:30:39.565Z,102885.25
2023-05-25T09:33:13.602Z,102877.97
2023-05-25T09:35:44.421Z,102872.72
2023-05-25T09:38:15.777Z,102862.28
2023-05-25T09:40:45.604Z,102872.56
2023-05-25T09:43:22.013Z,102875.56
2023-05-25T09:45:55.339Z,102873.28
2023-05-25T09:48:22.351Z,102886.00
2023-05-25T09:50:50.159Z,102781.09
2023-05-25T09:53:19.292Z,102854.00
2023-05-25T09:55:53.934Z,102854.19
2023-05-25T09:58:23.734Z,102858.91
2023-05-25T10:00:55.828Z,102872.59
2023-05-25T10:03:22.825Z,102881.38
2023-05-25T10:05:49.959Z,102877.94
2023-05-25T10:08:20.236Z,102886.38
2023-05-25T10:10:50.126Z,102887.41
2023-05-25T10:13:22.154Z,102861.66
2023-05-25T10:15:55.675Z,102854.56
2023-05-25T10:18:28.277Z,102868.97
2023-05-25T10:21:03.609Z,102883.69
2023-05-25T10:23:38.248Z,102877.91
2023-05-25T10:26:06.742Z,102888.94
2023-05-25T10:28:37.384Z,102871.88
2023-05-25T10:31:05.422Z,102902.75
2023-05-25T10:33:34.161Z,102887.09
2023-05-25T10:36:10.542Z,102881.63
2023-05-25T10:38:40.637Z,102792.97
2023-05-25T10:41:13.847Z,102872.06
2023-05-25T10:43:41.564Z,102879.88
2023-05-25T10:46:09.074Z,102847.09
2023-05-25T10:48:40.666Z,102869.06
2023-05-25T10:51:12.028Z,102848.66
2023-05-25T10:53:39.124Z,102885.94
2023-05-25T10:56:08.875Z,102874.81
2023-05-25T10:58:36.543Z,102883.56
2023-05-25T11:01:11.003Z,102878.81
2023-05-25T11:03:45.968Z,102882.28
2023-05-25T11:06:22.734Z,102841.25
2023-05-25T11:08:59.841Z,102870.72
2023-05-25T11:11:47.832Z,102870.22
2023-05-25T11:14:30.098Z,102872.09
2023-05-25T11:17:15.083Z,102856.81
2023-05-25T11:19:56.569Z,102856.75
2023-05-25T11:22:33.774Z,102870.00
2023-05-25T11:25:02.006Z,102800.19
2023-05-25T11:27:30.819Z,102865.19
2023-05-25T11:29:59.390Z,102862.50
2023-05-25T11:32:27.296Z,102819.94
2023-05-25T11:34:58.833Z,102845.84
2023-05-25T11:37:29.212Z,102813.72
2023-05-25T11:39:56.096Z,102837.63
2023-05-25T11:42:26.575Z,102846.97
2023-05-25T11:44:53.822Z,102832.09
2023-05-25T11:47:23.984Z,102834.00
2023-05-25T11:49:50.926Z,102809.03
2023-05-25T11:52:22.428Z,102806.13
2023-05-25T11:54:49.359Z,102841.13
2023-05-25T11:57:20.949Z,102828.69
2023-05-25T12:00:01.391Z,102827.59
2023-05-25T12:02:28.353Z,102818.09
2023-05-25T12:04:56.330Z,102793.34
2023-05-25T12:07:24.139Z,102822.25
2023-05-25T12:09:50.916Z,102816.31
2023-05-25T12:12:17.814Z,102804.56
2023-05-25T12:14:51.479Z,102813.25
2023-05-25T12:17:21.510Z,102807.88
2023-05-25T12:19:49.163Z,102817.03
2023-05-25T12:22:16.473Z,102814.38
2023-05-25T12:24:43.530Z,102795.91
2023-05-25T12:27:18.224Z,102809.66
2023-05-25T12:29:48.636Z,102802.94
2023-05-25T12:32:16.140Z,102800.06
2023-05-25T12:34:43.696Z,102810.78
2023-05-25T12:37:21.077Z,102802.66
2023-05-25T12:39:51.076Z,102809.63
2023-05-25T12:42:18.078Z,102779.28
2023-05-25T12:44:46.717Z,102767.44
2023-05-25T12:47:16.067Z,102767.22
2023-05-25T12:49:44.850Z,102807.72
2023-05-25T12:52:31.235Z,102806.22
2023-05-25T12:54:58.038Z,102810.13
2023-05-25T12:57:36.358Z,102778.34
2023-05-25T13:00:03.897Z,102811.75
2023-05-25T13:02:30.815Z,102810.19
2023-05-25T13:04:57.548Z,102801.75
2023-05-25T13:07:28.077Z,102803.84
2023-05-25T13:09:55.076Z,102790.28
2023-05-25T13:12:21.927Z,102806.06
2023-05-25T13:14:49.235Z,102793.59
2023-05-25T13:17:16.110Z,102795.44
2023-05-25T13:19:42.809Z,102795.63
2023-05-25T13:22:09.633Z,102790.03
2023-05-25T13:24:36.370Z,102799.31
2023-05-25T13:27:04.341Z,102788.75
2023-05-25T13:29:33.318Z,102794.47
2023-05-25T13:32:00.092Z,102766.56
2023-05-25T13:34:27.115Z,102778.34
2023-05-25T13:36:54.015Z,102759.19
2023-05-25T13:39:23.029Z,102791.88
2023-05-25T13:41:49.961Z,102784.28
2023-05-25T13:44:21.425Z,102786.50
2023-05-25T13:46:48.605Z,102755.38
2023-05-25T13:49:16.596Z,102782.38
2023-05-25T13:51:43.294Z,102742.84
2023-05-25T13:54:10.100Z,102766.84
2023-05-25T13:56:36.865Z,102784.66
2023-05-25T13:59:04.032Z,102779.94
2023-05-25T14:01:33.020Z,102756.09
2023-05-25T14:04:00.654Z,102771.31
2023-05-25T14:06:28.909Z,102760.41
2023-05-25T14:08:56.134Z,102749.44
2023-05-25T14:11:28.190Z,102773.13
2023-05-25T14:13:55.898Z,102768.16
2023-05-25T14:16:23.024Z,102761.53
2023-05-25T14:18:50.250Z,102730.22
2023-05-25T14:21:17.293Z,102763.00
2023-05-25T14:23:44.892Z,102768.84
2023-05-25T14:26:12.733Z,102744.84
2023-05-25T14:28:41.957Z,102740.31
2023-05-25T14:31:08.818Z,102745.91
2023-05-25T14:33:38.730Z,102767.81
2023-05-25T14:36:06.452Z,102777.75
2023-05-25T14:38:33.355Z,102746.34
2023-05-25T14:41:00.214Z,102741.81
2023-05-25T14:43:27.051Z,102777.91
2023-05-25T14:45:53.758Z,102742.03
2023-05-25T14:48:25.403Z,102774.47
2023-05-25T14:50:53.176Z,102744.03
2023-05-25T14:53:19.877Z,102762.44
2023-05-25T14:55:46.907Z,102772.66
2023-05-25T14:58:15.076Z,102775.66
2023-05-25T15:00:41.782Z,102767.97
2023-05-25T15:03:08.796Z,102766.47
2023-05-25T15:05:37.936Z,102741.03
2023-05-25T15:08:05.661Z,102742.69
2023-05-25T15:10:32.633Z,102768.41
2023-05-25T15:12:59.561Z,102736.34
2023-05-25T15:15:26.406Z,102735.00
2023-05-25T15:17:53.243Z,102758.19
2023-05-25T15:20:20.176Z,102749.72
2023-05-25T15:22:46.938Z,102754.56
2023-05-25T15:25:18.984Z,102754.09
2023-05-25T15:27:51.494Z,102756.28
2023-05-25T15:30:19.353Z,102761.38
2023-05-25T15:32:46.222Z,102755.13
2023-05-25T15:35:13.028Z,102759.28
2023-05-25T15:37:39.865Z,102738.84
2023-05-25T15:40:07.150Z,102761.78
2023-05-25T15:42:33.770Z,102760.16
2023-05-25T15:45:00.607Z,102724.22
2023-05-25T15:47:27.411Z,102733.28
2023-05-25T15:49:54.163Z,102751.31
2023-05-25T15:52:23.287Z,102759.91
2023-05-25T15:54:49.968Z,102758.19
2023-05-25T15:57:23.479Z,102724.66
2023-05-25T15:59:51.554Z,102730.66
2023-05-25T16:02:18.423Z,102712.63
2023-05-25T16:04:45.359Z,102758.16
2023-05-25T16:07:12.568Z,102758.50
2023-05-25T16:09:39.364Z,102725.03
2023-05-25T16:12:07.061Z,102737.63
2023-05-25T16:14:33.746Z,102746.09
2023-05-25T16:17:00.543Z,102761.69
2023-05-25T16:19:27.510Z,102762.22
2023-05-25T16:21:54.540Z,102750.88
2023-05-25T16:24:21.736Z,102755.03
2023-05-25T16:26:51.341Z,102719.34
2023-05-25T16:29:18.725Z,102736.84
2023-05-25T16:31:46.320Z,102745.19
2023-05-25T16:34:13.481Z,102743.69
2023-05-25T16:36:40.819Z,102745.69
2023-05-25T16:39:12.085Z,102746.34
2023-05-25T16:41:39.132Z,102742.13
2023-05-25T16:44:08.012Z,102744.38
2023-05-25T16:46:35.147Z,102719.34
2023-05-25T16:49:04.420Z,102747.03
2023-05-25T16:51:33.944Z,102742.06
2023-05-25T16:54:00.972Z,102725.50
2023-05-25T16:56:30.411Z,102737.41
2023-05-25T16:58:57.177Z,102743.97
2023-05-25T17:01:24.072Z,102725.91
2023-05-25T17:03:53.093Z,102720.53
2023-05-25T17:06:20.129Z,102730.66
2023-05-25T17:08:46.869Z,102728.75
2023-05-25T17:11:18.172Z,102701.34
2023-05-25T17:13:44.927Z,102734.00
2023-05-25T17:16:11.855Z,102741.63
2023-05-25T17:18:38.574Z,102740.25
2023-05-25T17:21:05.696Z,102736.63
2023-05-25T17:23:32.411Z,102711.66
2023-05-25T17:25:59.241Z,102707.84
2023-05-25T17:28:27.748Z,102743.00
2023-05-25T17:30:56.592Z,102711.94
2023-05-25T17:33:23.519Z,102733.06
2023-05-25T17:35:50.442Z,102736.56
2023-05-25T17:38:17.537Z,102735.66
2023-05-25T17:40:44.437Z,102741.72
2023-05-25T17:43:13.731Z,102735.72
2023-05-25T17:45:40.999Z,102738.13
2023-05-25T17:48:07.927Z,102748.66
2023-05-25T17:50:34.740Z,102743.38
2023-05-25T17:53:01.845Z,102730.88
2023-05-25T17:55:28.771Z,102745.22
2023-05-25T17:57:55.495Z,102753.13
2023-05-25T18:00:24.686Z,102747.25
2023-05-25T18:02:53.973Z,102752.94
2023-05-25T18:05:20.824Z,102738.19
2023-05-25T18:07:47.676Z,102754.66
2023-05-25T18:10:14.950Z,102751.94
2023-05-25T18:12:41.857Z,102748.03
2023-05-25T18:15:09.285Z,102741.09
2023-05-25T18:17:36.040Z,102712.41
2023-05-25T18:20:03.157Z,102727.56
2023-05-25T18:22:29.990Z,102747.97
2023-05-25T18:24:56.609Z,102753.91
2023-05-25T18:27:23.434Z,102751.75
2023-05-25T18:29:52.305Z,102761.47
2023-05-25T18:32:21.194Z,102750.47
2023-05-25T18:34:48.466Z,102753.94
2023-05-25T18:37:16.052Z,102714.13
2023-05-25T18:39:43.099Z,102758.13
2023-05-25T18:42:09.944Z,102755.06
2023-05-25T18:44:36.603Z,102711.38
2023-05-25T18:47:03.570Z,102726.78
2023-05-25T18:49:34.678Z,102726.47
2023-05-25T18:52:01.645Z,102759.97
2023-05-25T18:54:28.423Z,102771.72
2023-05-25T18:56:55.189Z,102738.19
2023-05-25T18:59:21.903Z,102774.72
2023-05-25T19:01:48.824Z,102773.97
2023-05-25T19:04:15.949Z,102767.88
2023-05-25T19:06:42.826Z,102777.41
2023-05-25T19:09:09.698Z,102746.59
2023-05-25T19:11:36.378Z,102741.75
2023-05-25T19:14:03.097Z,102776.31
2023-05-25T19:16:29.818Z,102780.75
2023-05-25T19:18:59.064Z,102769.53
2023-05-25T19:21:26.933Z,102780.34
2023-05-25T19:23:54.360Z,102779.91
2023-05-25T19:26:21.271Z,102786.69
2023-05-25T19:28:48.152Z,102792.75
2023-05-25T19:31:15.601Z,102756.41
2023-05-25T19:33:42.757Z,102790.47
2023-05-25T19:36:09.529Z,102791.13
2023-05-25T19:38:41.278Z,102777.97
2023-05-25T19:41:11.576Z,102799.44
2023-05-25T19:43:38.774Z,102738.44
2023-05-25T19:46:05.998Z,102813.22
2023-05-25T19:48:32.756Z,102816.50
2023-05-25T19:51:01.044Z,102811.03
2023-05-25T19:53:31.607Z,102793.84
2023-05-25T19:55:58.877Z,102819.06
2023-05-25T19:58:28.149Z,102798.25
2023-05-25T20:00:55.227Z,102824.72
2023-05-25T20:03:22.180Z,102805.13
2023-05-25T20:05:49.110Z,102800.69
2023-05-25T20:08:16.040Z,102814.41
2023-05-25T20:10:45.011Z,102834.59
2023-05-25T20:13:12.840Z,102797.94
2023-05-25T20:15:42.332Z,102838.44
2023-05-25T20:18:09.200Z,102839.00
2023-05-25T20:20:38.542Z,102809.91
2023-05-25T20:23:06.206Z,102844.25
2023-05-25T20:25:33.076Z,102833.38
2023-05-25T20:27:59.708Z,102851.34
2023-05-25T20:30:29.850Z,102812.66
2023-05-25T20:32:56.692Z,102855.97
2023-05-25T20:35:25.798Z,102856.56
2023-05-25T20:37:52.833Z,102839.25
2023-05-25T20:40:19.682Z,102710.47
2023-05-25T20:42:46.944Z,102843.56
2023-05-25T20:45:13.984Z,102835.59
2023-05-25T20:47:41.141Z,102866.66
2023-05-25T20:50:10.641Z,102862.63
2023-05-25T20:52:37.578Z,102861.25
2023-05-25T20:55:05.191Z,102879.94
2023-05-25T20:57:32.129Z,102882.03
2023-05-25T21:00:00.022Z,102892.25
2023-05-25T21:02:28.957Z,102888.38
2023-05-25T21:04:55.719Z,102892.44
2023-05-25T21:07:22.639Z,102896.53
2023-05-25T21:09:49.492Z,102894.47
2023-05-25T21:12:16.223Z,102894.19
2023-05-25T21:14:43.049Z,102909.78
2023-05-25T21:17:10.143Z,102908.88
2023-05-25T21:19:37.004Z,102897.84
2023-05-25T21:22:03.964Z,102902.06
2023-05-25T21:24:31.624Z,102896.06
2023-05-25T21:27:01.660Z,102902.41
2023-05-25T21:29:28.383Z,102892.13
2023-05-25T21:31:55.494Z,102882.13
2023-05-25T21:34:22.631Z,102861.44
2023-05-25T21:36:49.881Z,102892.53
2023-05-25T21:39:17.374Z,102907.63
2023-05-25T21:41:47.118Z,102916.28
2023-05-25T21:44:13.761Z,102908.78
2023-05-25T21:46:40.631Z,102915.44
2023-05-25T21:49:07.548Z,102906.06
2023-05-25T21:51:34.200Z,102912.31
2023-05-25T21:54:01.182Z,102879.50
2023-05-25T21:56:30.107Z,102927.75
2023-05-25T21:58:56.903Z,102885.94
2023-05-25T22:01:24.195Z,102920.09
2023-05-25T22:03:51.256Z,102929.59
2023-05-25T22:06:18.312Z,102933.66
2023-05-25T22:08:45.098Z,102923.16
2023-05-25T22:11:11.908Z,102886.78
2023-05-25T22:13:38.650Z,102919.53
2023-05-25T22:16:06.206Z,102879.44
2023-05-25T22:18:34.384Z,102894.22
2023-05-25T22:21:02.191Z,102928.56
2023-05-25T22:23:31.070Z,102916.09
2023-05-25T22:25:59.949Z,102916.50
2023-05-25T22:28:28.957Z,102933.47
2023-05-25T22:30:58.200Z,102934.31
2023-05-25T22:33:25.451Z,102905.19
2023-05-25T22:35:52.214Z,102904.44
2023-05-25T22:38:22.100Z,102934.19
2023-05-25T22:40:48.873Z,102941.22
2023-05-25T22:43:15.813Z,102920.94
2023-05-25T22:45:42.778Z,102895.63
2023-05-25T22:48:13.199Z,102940.53
2023-05-25T22:50:40.052Z,102933.50
2023-05-25T22:53:06.936Z,102943.75
2023-05-25T22:55:33.694Z,102949.31
2023-05-25T22:58:00.346Z,102943.19
2023-05-25T23:00:29.460Z,102947.53
2023-05-25T23:02:56.604Z,102955.94
2023-05-25T23:05:23.405Z,102949.88
2023-05-25T23:07:52.166Z,102950.22
2023-05-25T23:10:18.971Z,102949.72
2023-05-25T23:12:46.682Z,102956.47
2023-05-25T23:15:13.327Z,102954.81
2023-05-25T23:17:42.287Z,102911.97
2023-05-25T23:20:10.589Z,102951.81
2023-05-25T23:22:37.590Z,102916.97
2023-05-25T23:25:07.087Z,102945.78
2023-05-25T23:27:33.857Z,102912.00
2023-05-25T23:30:03.566Z,102946.25
2023-05-25T23:32:30.416Z,102901.84
2023-05-25T23:34:57.542Z,102936.16
2023-05-25T23:37:24.403Z,102938.22
2023-05-25T23:39:51.524Z,102949.91
2023-05-25T23:42:19.263Z,102931.69
2023-05-25T23:44:46.314Z,102914.22
2023-05-25T23:47:13.049Z,102909.63
2023-05-25T23:49:42.564Z,102908.66
2023-05-25T23:52:09.270Z,102945.78
2023-05-25T23:54:37.347Z,102912.06
2023-05-25T23:57:04.379Z,102906.13
2023-05-25T23:59:31.230Z,102937.50
